sensor_id;sensor_type;location;lat;lon;timestamp;pressure;altitude;pressure_sealevel;temperature;humidity
34177;BME280;20450;49.074;9.158;2023-06-22T00:02:12;99746.25;;;22.19;74.49
34177;BME280;20450;49.074;9.158;2023-06-22T00:04:40;99741.78;;;22.28;74.56
34177;BME280;20450;49.074;9.158;2023-06-22T00:07:07;99743.63;;;22.37;74.29
34177;BME280;20450;49.074;9.158;2023-06-22T00:09:34;99743.28;;;22.44;74.03
34177;BME280;20450;49.074;9.158;2023-06-22T00:12:01;99729.75;;;22.47;74.17
34177;BME280;20450;49.074;9.158;2023-06-22T00:17:49;99714.75;;;22.35;74.98
34177;BME280;20450;49.074;9.158;2023-06-22T00:20:20;99720.06;;;22.26;75.17
34177;BME280;20450;49.074;9.158;2023-06-22T00:22:47;99716.34;;;22.12;75.75
34177;BME280;20450;49.074;9.158;2023-06-22T00:25:15;99714.09;;;21.81;77.20
34177;BME280;20450;49.074;9.158;2023-06-22T00:27:42;99709.34;;;21.91;76.99
34177;BME280;20450;49.074;9.158;2023-06-22T00:30:10;99715.59;;;22.02;76.52
34177;BME280;20450;49.074;9.158;2023-06-22T00:32:38;99719.38;;;22.11;75.85
34177;BME280;20450;49.074;9.158;2023-06-22T00:35:08;99729.75;;;22.19;75.69
34177;BME280;20450;49.074;9.158;2023-06-22T00:37:35;99725.84;;;22.25;75.39
34177;BME280;20450;49.074;9.158;2023-06-22T00:40:03;99729.41;;;22.30;75.17
34177;BME280;20450;49.074;9.158;2023-06-22T00:42:30;99734.31;;;22.33;75.26
34177;BME280;20450;49.074;9.158;2023-06-22T00:44:58;99735.38;;;22.37;74.61
34177;BME280;20450;49.074;9.158;2023-06-22T00:47:25;99732.03;;;22.40;74.80
34177;BME280;20450;49.074;9.158;2023-06-22T00:49:54;99738.59;;;22.44;74.41
34177;BME280;20450;49.074;9.158;2023-06-22T00:52:23;99752.06;;;22.46;74.88
34177;BME280;20450;49.074;9.158;2023-06-22T00:54:52;99751.53;;;22.44;74.56
34177;BME280;20450;49.074;9.158;2023-06-22T00:57:20;99757.88;;;22.44;74.84
34177;BME280;20450;49.074;9.158;2023-06-22T00:59:48;99789.50;;;22.47;74.72
34177;BME280;20450;49.074;9.158;2023-06-22T01:02:15;99827.81;;;22.43;74.71
34177;BME280;20450;49.074;9.158;2023-06-22T01:04:43;99873.50;;;22.44;74.45
34177;BME280;20450;49.074;9.158;2023-06-22T01:07:15;99902.75;;;22.35;74.54
34177;BME280;20450;49.074;9.158;2023-06-22T01:09:57;99869.22;;;22.28;74.55
34177;BME280;20450;49.074;9.158;2023-06-22T01:12:34;99839.22;;;22.27;74.70
34177;BME280;20450;49.074;9.158;2023-06-22T01:15:09;99828.50;;;22.25;74.50
34177;BME280;20450;49.074;9.158;2023-06-22T01:17:43;99829.34;;;22.26;74.93
34177;BME280;20450;49.074;9.158;2023-06-22T01:20:12;99823.28;;;22.24;75.40
34177;BME280;20450;49.074;9.158;2023-06-22T01:22:52;99818.16;;;22.12;75.58
34177;BME280;20450;49.074;9.158;2023-06-22T01:25:37;99816.75;;;22.15;75.38
34177;BME280;20450;49.074;9.158;2023-06-22T01:31:17;99787.84;;;21.69;77.26
34177;BME280;20450;49.074;9.158;2023-06-22T01:33:50;99780.97;;;21.76;77.41
34177;BME280;20450;49.074;9.158;2023-06-22T01:36:21;99785.06;;;21.79;77.30
34177;BME280;20450;49.074;9.158;2023-06-22T01:38:52;99790.34;;;21.65;77.76
34177;BME280;20450;49.074;9.158;2023-06-22T01:41:20;99793.41;;;21.59;78.46
34177;BME280;20450;49.074;9.158;2023-06-22T01:43:53;99781.59;;;21.58;78.08
34177;BME280;20450;49.074;9.158;2023-06-22T01:46:22;99773.06;;;21.55;78.68
34177;BME280;20450;49.074;9.158;2023-06-22T01:48:50;99768.94;;;21.57;78.73
34177;BME280;20450;49.074;9.158;2023-06-22T01:51:19;99769.75;;;21.58;78.55
34177;BME280;20450;49.074;9.158;2023-06-22T01:53:47;99762.91;;;21.55;78.66
34177;BME280;20450;49.074;9.158;2023-06-22T01:56:17;99769.22;;;21.56;78.63
34177;BME280;20450;49.074;9.158;2023-06-22T01:58:50;99774.44;;;21.57;78.71
34177;BME280;20450;49.074;9.158;2023-06-22T02:01:39;99776.63;;;21.60;78.60
34177;BME280;20450;49.074;9.158;2023-06-22T02:04:26;99771.41;;;21.59;78.68
34177;BME280;20450;49.074;9.158;2023-06-22T02:07:00;99781.84;;;21.62;78.24
34177;BME280;20450;49.074;9.158;2023-06-22T02:09:35;99783.19;;;21.64;78.44
34177;BME280;20450;49.074;9.158;2023-06-22T02:12:13;99774.13;;;21.64;78.07
34177;BME280;20450;49.074;9.158;2023-06-22T02:14:47;99782.16;;;21.55;78.27
34177;BME280;20450;49.074;9.158;2023-06-22T02:17:17;99784.06;;;21.55;78.29
34177;BME280;20450;49.074;9.158;2023-06-22T02:19:45;99790.09;;;21.62;78.27
34177;BME280;20450;49.074;9.158;2023-06-22T02:22:13;99796.41;;;21.62;77.84
34177;BME280;20450;49.074;9.158;2023-06-22T02:24:42;99783.06;;;21.41;78.43
34177;BME280;20450;49.074;9.158;2023-06-22T02:27:09;99790.78;;;21.33;78.73
34177;BME280;20450;49.074;9.158;2023-06-22T02:29:37;99774.53;;;21.37;78.81
34177;BME280;20450;49.074;9.158;2023-06-22T02:32:04;99775.13;;;21.29;79.17
34177;BME280;20450;49.074;9.158;2023-06-22T02:34:34;99768.53;;;21.25;79.50
34177;BME280;20450;49.074;9.158;2023-06-22T02:37:02;99773.19;;;21.29;79.44
34177;BME280;20450;49.074;9.158;2023-06-22T02:39:29;99767.41;;;21.36;79.10
34177;BME280;20450;49.074;9.158;2023-06-22T02:41:56;99765.72;;;21.40;79.05
34177;BME280;20450;49.074;9.158;2023-06-22T02:44:23;99759.38;;;21.45;78.63
34177;BME280;20450;49.074;9.158;2023-06-22T02:46:51;99760.84;;;21.32;78.27
34177;BME280;20450;49.074;9.158;2023-06-22T02:49:18;99756.47;;;21.26;79.16
34177;BME280;20450;49.074;9.158;2023-06-22T02:51:48;99752.06;;;21.25;78.86
34177;BME280;20450;49.074;9.158;2023-06-22T02:54:19;99749.84;;;21.27;78.79
34177;BME280;20450;49.074;9.158;2023-06-22T02:56:49;99751.53;;;21.18;79.03
34177;BME280;20450;49.074;9.158;2023-06-22T02:59:17;99747.69;;;21.19;79.01
34177;BME280;20450;49.074;9.158;2023-06-22T03:01:44;99755.66;;;21.20;79.06
34177;BME280;20450;49.074;9.158;2023-06-22T03:04:20;99755.38;;;21.22;78.89
34177;BME280;20450;49.074;9.158;2023-06-22T03:06:49;99747.13;;;21.22;78.72
34177;BME280;20450;49.074;9.158;2023-06-22T03:09:17;99743.28;;;21.23;78.70
34177;BME280;20450;49.074;9.158;2023-06-22T03:11:49;99750.41;;;21.29;78.69
34177;BME280;20450;49.074;9.158;2023-06-22T03:14:29;99745.16;;;21.32;78.26
34177;BME280;20450;49.074;9.158;2023-06-22T03:17:06;99747.63;;;21.34;78.07
34177;BME280;20450;49.074;9.158;2023-06-22T03:19:49;99747.63;;;21.34;77.96
34177;BME280;20450;49.074;9.158;2023-06-22T03:29:33;99733.28;;;21.42;77.91
34177;BME280;20450;49.074;9.158;2023-06-22T03:32:01;99731.91;;;21.45;77.50
34177;BME280;20450;49.074;9.158;2023-06-22T03:34:31;99731.13;;;21.39;77.92
34177;BME280;20450;49.074;9.158;2023-06-22T03:36:58;99727.81;;;21.42;77.75
34177;BME280;20450;49.074;9.158;2023-06-22T03:39:50;99729.38;;;21.53;77.45
34177;BME280;20450;49.074;9.158;2023-06-22T03:42:17;99727.16;;;21.55;77.34
34177;BME280;20450;49.074;9.158;2023-06-22T03:44:45;99722.72;;;21.59;77.12
34177;BME280;20450;49.074;9.158;2023-06-22T03:47:13;99729.31;;;21.63;77.05
34177;BME280;20450;49.074;9.158;2023-06-22T03:49:40;99729.28;;;21.68;76.67
34177;BME280;20450;49.074;9.158;2023-06-22T03:52:07;99734.75;;;21.73;76.72
34177;BME280;20450;49.074;9.158;2023-06-22T03:54:34;99730.38;;;21.72;75.92
34177;BME280;20450;49.074;9.158;2023-06-22T03:57:03;99729.56;;;21.77;76.06
34177;BME280;20450;49.074;9.158;2023-06-22T03:59:31;99727.03;;;21.80;75.85
34177;BME280;20450;49.074;9.158;2023-06-22T04:01:58;99735.56;;;21.79;76.36
34177;BME280;20450;49.074;9.158;2023-06-22T04:04:25;99727.63;;;21.72;78.05
34177;BME280;20450;49.074;9.158;2023-06-22T04:10:36;99730.41;;;21.67;78.83
34177;BME280;20450;49.074;9.158;2023-06-22T04:13:05;99725.41;;;21.79;78.78
34177;BME280;20450;49.074;9.158;2023-06-22T04:15:33;99714.84;;;21.91;78.14
34177;BME280;20450;49.074;9.158;2023-06-22T04:18:01;99723.44;;;22.18;77.09
34177;BME280;20450;49.074;9.158;2023-06-22T04:20:29;99715.47;;;22.45;76.15
34177;BME280;20450;49.074;9.158;2023-06-22T04:22:56;99714.97;;;22.72;74.14
34177;BME280;20450;49.074;9.158;2023-06-22T04:25:33;99703.28;;;23.03;72.68
34177;BME280;20450;49.074;9.158;2023-06-22T04:28:02;99708.22;;;23.30;71.15
34177;BME280;20450;49.074;9.158;2023-06-22T04:30:32;99709.78;;;23.55;70.58
34177;BME280;20450;49.074;9.158;2023-06-22T04:32:59;99711.72;;;23.73;69.53
34177;BME280;20450;49.074;9.158;2023-06-22T04:35:26;99710.59;;;23.92;68.66
34177;BME280;20450;49.074;9.158;2023-06-22T04:37:53;99702.53;;;24.14;67.70
34177;BME280;20450;49.074;9.158;2023-06-22T04:40:23;99696.44;;;24.31;67.22
34177;BME280;20450;49.074;9.158;2023-06-22T04:42:50;99698.41;;;24.44;66.22
34177;BME280;20450;49.074;9.158;2023-06-22T04:45:17;99706.19;;;24.55;65.86
34177;BME280;20450;49.074;9.158;2023-06-22T04:47:45;99696.94;;;24.65;65.78
34177;BME280;20450;49.074;9.158;2023-06-22T04:50:12;99693.19;;;24.42;65.88
34177;BME280;20450;49.074;9.158;2023-06-22T04:52:39;99691.84;;;24.40;65.94
34177;BME280;20450;49.074;9.158;2023-06-22T04:55:07;99691.22;;;24.29;66.70
34177;BME280;20450;49.074;9.158;2023-06-22T04:57:34;99689.09;;;24.40;66.90
34177;BME280;20450;49.074;9.158;2023-06-22T05:00:02;99685.91;;;24.46;66.76
34177;BME280;20450;49.074;9.158;2023-06-22T05:02:29;99688.03;;;24.68;66.07
34177;BME280;20450;49.074;9.158;2023-06-22T05:04:58;99696.13;;;24.78;65.58
34177;BME280;20450;49.074;9.158;2023-06-22T05:07:37;99683.22;;;24.87;65.15
34177;BME280;20450;49.074;9.158;2023-06-22T05:10:08;99678.22;;;24.89;64.91
34177;BME280;20450;49.074;9.158;2023-06-22T05:12:36;99682.22;;;25.10;64.48
34177;BME280;20450;49.074;9.158;2023-06-22T05:15:04;99669.78;;;25.21;63.44
34177;BME280;20450;49.074;9.158;2023-06-22T05:17:32;99673.88;;;25.37;63.49
34177;BME280;20450;49.074;9.158;2023-06-22T05:20:01;99677.94;;;25.53;63.03
34177;BME280;20450;49.074;9.158;2023-06-22T05:22:29;99675.50;;;25.52;62.65
34177;BME280;20450;49.074;9.158;2023-06-22T05:24:56;99672.69;;;25.65;62.68
34177;BME280;20450;49.074;9.158;2023-06-22T05:27:24;99665.13;;;25.79;62.24
34177;BME280;20450;49.074;9.158;2023-06-22T05:29:51;99668.25;;;26.00;62.08
34177;BME280;20450;49.074;9.158;2023-06-22T05:32:18;99671.69;;;26.27;60.73
34177;BME280;20450;49.074;9.158;2023-06-22T05:34:45;99664.06;;;26.63;60.24
34177;BME280;20450;49.074;9.158;2023-06-22T05:37:14;99667.03;;;26.67;58.63
34177;BME280;20450;49.074;9.158;2023-06-22T05:39:41;99658.19;;;27.04;58.22
34177;BME280;20450;49.074;9.158;2023-06-22T05:42:08;99663.34;;;27.36;57.02
34177;BME280;20450;49.074;9.158;2023-06-22T05:44:37;99659.94;;;27.65;56.77
34177;BME280;20450;49.074;9.158;2023-06-22T05:47:04;99656.84;;;28.09;54.75
34177;BME280;20450;49.074;9.158;2023-06-22T05:49:33;99654.81;;;28.43;54.15
34177;BME280;20450;49.074;9.158;2023-06-22T05:52:01;99656.75;;;28.51;53.67
34177;BME280;20450;49.074;9.158;2023-06-22T05:54:31;99666.88;;;28.94;53.00
34177;BME280;20450;49.074;9.158;2023-06-22T05:56:58;99661.97;;;29.49;51.32
34177;BME280;20450;49.074;9.158;2023-06-22T05:59:26;99656.31;;;29.86;49.72
34177;BME280;20450;49.074;9.158;2023-06-22T06:01:53;99662.56;;;30.16;49.19
34177;BME280;20450;49.074;9.158;2023-06-22T06:04:20;99644.78;;;30.41;48.82
34177;BME280;20450;49.074;9.158;2023-06-22T06:06:47;99648.94;;;30.35;48.26
34177;BME280;20450;49.074;9.158;2023-06-22T06:09:15;99653.25;;;30.32;48.54
34177;BME280;20450;49.074;9.158;2023-06-22T06:11:43;99658.03;;;30.11;48.83
34177;BME280;20450;49.074;9.158;2023-06-22T06:14:10;99655.69;;;30.46;47.88
34177;BME280;20450;49.074;9.158;2023-06-22T06:16:37;99653.59;;;30.76;47.51
34177;BME280;20450;49.074;9.158;2023-06-22T06:19:04;99644.59;;;31.18;47.16
34177;BME280;20450;49.074;9.158;2023-06-22T06:21:31;99654.00;;;31.62;45.46
34177;BME280;20450;49.074;9.158;2023-06-22T06:24:00;99645.63;;;31.89;45.23
34177;BME280;20450;49.074;9.158;2023-06-22T06:26:27;99637.63;;;31.76;44.14
34177;BME280;20450;49.074;9.158;2023-06-22T06:28:56;99635.19;;;31.74;44.66
34177;BME280;20450;49.074;9.158;2023-06-22T06:31:23;99638.47;;;32.04;44.67
34177;BME280;20450;49.074;9.158;2023-06-22T06:33:51;99643.69;;;32.05;44.05
34177;BME280;20450;49.074;9.158;2023-06-22T06:36:18;99636.72;;;32.27;43.98
34177;BME280;20450;49.074;9.158;2023-06-22T06:38:46;99630.84;;;32.32;43.50
34177;BME280;20450;49.074;9.158;2023-06-22T06:41:15;99629.56;;;32.42;43.13
34177;BME280;20450;49.074;9.158;2023-06-22T06:43:43;99639.78;;;32.81;42.42
34177;BME280;20450;49.074;9.158;2023-06-22T06:46:11;99637.13;;;32.72;41.59
34177;BME280;20450;49.074;9.158;2023-06-22T06:48:39;99636.13;;;33.11;41.37
34177;BME280;20450;49.074;9.158;2023-06-22T06:51:06;99638.66;;;33.16;41.40
34177;BME280;20450;49.074;9.158;2023-06-22T06:53:33;99638.94;;;33.11;41.27
34177;BME280;20450;49.074;9.158;2023-06-22T06:56:01;99629.97;;;33.21;41.24
34177;BME280;20450;49.074;9.158;2023-06-22T06:58:28;99634.09;;;32.93;41.06
34177;BME280;20450;49.074;9.158;2023-06-22T07:00:56;99625.50;;;32.70;42.48
34177;BME280;20450;49.074;9.158;2023-06-22T07:03:24;99622.69;;;32.55;42.50
34177;BME280;20450;49.074;9.158;2023-06-22T07:05:51;99624.63;;;32.66;42.49
34177;BME280;20450;49.074;9.158;2023-06-22T07:08:18;99617.84;;;32.36;43.71
34177;BME280;20450;49.074;9.158;2023-06-22T07:10:47;99609.00;;;32.50;42.91
34177;BME280;20450;49.074;9.158;2023-06-22T07:13:19;99597.94;;;32.26;43.63
34177;BME280;20450;49.074;9.158;2023-06-22T07:15:47;99605.00;;;30.89;45.16
34177;BME280;20450;49.074;9.158;2023-06-22T07:18:14;99598.66;;;30.43;48.23
34177;BME280;20450;49.074;9.158;2023-06-22T07:20:43;99603.09;;;31.17;46.17
34177;BME280;20450;49.074;9.158;2023-06-22T07:23:10;99599.75;;;31.63;45.14
34177;BME280;20450;49.074;9.158;2023-06-22T07:25:37;99588.31;;;31.68;44.94
34177;BME280;20450;49.074;9.158;2023-06-22T07:28:07;99588.91;;;31.61;44.56
34177;BME280;20450;49.074;9.158;2023-06-22T07:30:34;99587.44;;;30.76;47.02
34177;BME280;20450;49.074;9.158;2023-06-22T07:33:02;99587.53;;;30.56;46.57
34177;BME280;20450;49.074;9.158;2023-06-22T07:35:30;99582.22;;;29.32;47.25
34177;BME280;20450;49.074;9.158;2023-06-22T07:37:59;99577.84;;;28.73;49.48
34177;BME280;20450;49.074;9.158;2023-06-22T07:40:31;99574.06;;;28.78;49.47
34177;BME280;20450;49.074;9.158;2023-06-22T07:43:00;99560.63;;;29.00;50.11
34177;BME280;20450;49.074;9.158;2023-06-22T07:45:27;99559.91;;;28.91;49.26
34177;BME280;20450;49.074;9.158;2023-06-22T07:47:54;99546.44;;;29.43;48.50
34177;BME280;20450;49.074;9.158;2023-06-22T07:50:22;99548.00;;;29.11;49.03
34177;BME280;20450;49.074;9.158;2023-06-22T07:52:49;99549.59;;;28.25;49.58
34177;BME280;20450;49.074;9.158;2023-06-22T07:55:18;99555.25;;;27.74;49.79
34177;BME280;20450;49.074;9.158;2023-06-22T07:57:49;99561.00;;;27.52;51.46
34177;BME280;20450;49.074;9.158;2023-06-22T08:00:17;99561.31;;;27.76;51.06
34177;BME280;20450;49.074;9.158;2023-06-22T08:02:46;99559.34;;;27.93;50.48
34177;BME280;20450;49.074;9.158;2023-06-22T08:05:14;99556.16;;;28.20;49.80
34177;BME280;20450;49.074;9.158;2023-06-22T08:07:48;99550.31;;;28.42;49.29
34177;BME280;20450;49.074;9.158;2023-06-22T08:10:17;99558.19;;;28.40;50.75
34177;BME280;20450;49.074;9.158;2023-06-22T08:12:45;99560.28;;;28.81;48.43
34177;BME280;20450;49.074;9.158;2023-06-22T08:15:12;99563.56;;;29.04;48.11
34177;BME280;20450;49.074;9.158;2023-06-22T08:17:40;99546.84;;;29.12;48.79
34177;BME280;20450;49.074;9.158;2023-06-22T08:20:09;99551.09;;;29.51;47.61
34177;BME280;20450;49.074;9.158;2023-06-22T08:22:38;99547.06;;;29.07;47.78
34177;BME280;20450;49.074;9.158;2023-06-22T08:25:06;99556.84;;;29.13;47.70
34177;BME280;20450;49.074;9.158;2023-06-22T08:27:36;99558.94;;;29.16;47.41
34177;BME280;20450;49.074;9.158;2023-06-22T08:30:05;99561.44;;;29.30;46.66
34177;BME280;20450;49.074;9.158;2023-06-22T08:32:34;99565.19;;;29.13;47.27
34177;BME280;20450;49.074;9.158;2023-06-22T08:35:02;99558.94;;;29.16;49.20
34177;BME280;20450;49.074;9.158;2023-06-22T08:37:30;99560.84;;;28.66;48.17
34177;BME280;20450;49.074;9.158;2023-06-22T08:39:59;99555.88;;;28.80;49.58
34177;BME280;20450;49.074;9.158;2023-06-22T08:42:27;99556.63;;;28.89;48.08
34177;BME280;20450;49.074;9.158;2023-06-22T08:44:55;99557.03;;;28.79;48.06
34177;BME280;20450;49.074;9.158;2023-06-22T08:47:22;99556.41;;;28.36;50.14
34177;BME280;20450;49.074;9.158;2023-06-22T08:49:50;99560.81;;;28.75;48.34
34177;BME280;20450;49.074;9.158;2023-06-22T08:52:17;99575.53;;;28.75;47.29
34177;BME280;20450;49.074;9.158;2023-06-22T08:54:45;99583.63;;;28.89;47.36
34177;BME280;20450;49.074;9.158;2023-06-22T08:57:12;99583.91;;;28.67;48.43
34177;BME280;20450;49.074;9.158;2023-06-22T08:59:40;99583.41;;;28.73;48.43
34177;BME280;20450;49.074;9.158;2023-06-22T09:02:08;99582.47;;;28.60;48.74
34177;BME280;20450;49.074;9.158;2023-06-22T09:04:35;99580.66;;;28.64;48.71
34177;BME280;20450;49.074;9.158;2023-06-22T09:07:05;99593.34;;;28.36;49.26
34177;BME280;20450;49.074;9.158;2023-06-22T09:09:32;99606.91;;;28.46;49.69
34177;BME280;20450;49.074;9.158;2023-06-22T09:11:59;99630.91;;;28.89;49.13
34177;BME280;20450;49.074;9.158;2023-06-22T09:14:26;99648.91;;;29.20;48.64
34177;BME280;20450;49.074;9.158;2023-06-22T09:16:53;99647.09;;;29.45;48.06
34177;BME280;20450;49.074;9.158;2023-06-22T09:19:22;99606.31;;;29.69;47.38
34177;BME280;20450;49.074;9.158;2023-06-22T09:21:49;99597.19;;;29.81;46.70
34177;BME280;20450;49.074;9.158;2023-06-22T09:24:17;99606.56;;;29.76;46.89
34177;BME280;20450;49.074;9.158;2023-06-22T09:26:44;99585.13;;;29.36;48.22
34177;BME280;20450;49.074;9.158;2023-06-22T09:29:37;99564.84;;;29.15;48.38
34177;BME280;20450;49.074;9.158;2023-06-22T09:32:05;99555.13;;;29.21;49.08
34177;BME280;20450;49.074;9.158;2023-06-22T09:34:35;99553.38;;;28.87;48.49
34177;BME280;20450;49.074;9.158;2023-06-22T09:37:03;99535.34;;;28.93;49.49
34177;BME280;20450;49.074;9.158;2023-06-22T09:43:13;99518.03;;;28.67;50.55
34177;BME280;20450;49.074;9.158;2023-06-22T09:45:40;99504.41;;;28.74;50.57
34177;BME280;20450;49.074;9.158;2023-06-22T09:48:08;99499.66;;;28.75;49.87
34177;BME280;20450;49.074;9.158;2023-06-22T09:50:37;99486.41;;;28.13;51.69
34177;BME280;20450;49.074;9.158;2023-06-22T09:53:04;99495.44;;;28.02;52.55
34177;BME280;20450;49.074;9.158;2023-06-22T09:55:31;99508.94;;;28.49;50.67
34177;BME280;20450;49.074;9.158;2023-06-22T09:57:57;99504.53;;;29.39;49.82
34177;BME280;20450;49.074;9.158;2023-06-22T10:00:24;99502.47;;;29.69;47.65
34177;BME280;20450;49.074;9.158;2023-06-22T10:02:52;99500.97;;;29.39;48.18
34177;BME280;20450;49.074;9.158;2023-06-22T10:05:19;99510.41;;;29.58;48.02
34177;BME280;20450;49.074;9.158;2023-06-22T10:07:48;99506.59;;;30.07;47.57
34177;BME280;20450;49.074;9.158;2023-06-22T10:13:57;99507.75;;;29.94;46.31
34177;BME280;20450;49.074;9.158;2023-06-22T10:16:30;99506.66;;;30.56;45.79
34177;BME280;20450;49.074;9.158;2023-06-22T10:18:58;99506.88;;;30.87;45.03
34177;BME280;20450;49.074;9.158;2023-06-22T10:21:25;99499.63;;;31.10;44.13
34177;BME280;20450;49.074;9.158;2023-06-22T10:27:37;99489.84;;;31.71;43.83
34177;BME280;20450;49.074;9.158;2023-06-22T10:30:05;99480.00;;;30.94;44.25
34177;BME280;20450;49.074;9.158;2023-06-22T10:32:33;99476.22;;;30.51;45.09
34177;BME280;20450;49.074;9.158;2023-06-22T10:35:19;99480.75;;;30.55;45.81
34177;BME280;20450;49.074;9.158;2023-06-22T10:37:48;99468.53;;;30.60;45.48
34177;BME280;20450;49.074;9.158;2023-06-22T10:40:17;99473.53;;;30.66;45.96
34177;BME280;20450;49.074;9.158;2023-06-22T10:42:45;99470.88;;;30.70;46.68
34177;BME280;20450;49.074;9.158;2023-06-22T10:45:13;99454.72;;;30.63;46.11
34177;BME280;20450;49.074;9.158;2023-06-22T10:48:04;99449.16;;;30.75;46.40
34177;BME280;20450;49.074;9.158;2023-06-22T10:50:31;99430.09;;;30.53;45.39
34177;BME280;20450;49.074;9.158;2023-06-22T10:52:59;99437.41;;;31.09;45.43
34177;BME280;20450;49.074;9.158;2023-06-22T10:55:31;99431.47;;;31.11;46.45
34177;BME280;20450;49.074;9.158;2023-06-22T10:58:19;99424.44;;;30.89;44.16
34177;BME280;20450;49.074;9.158;2023-06-22T11:00:46;99427.78;;;31.07;45.67
34177;BME280;20450;49.074;9.158;2023-06-22T11:03:13;99435.63;;;31.17;44.39
34177;BME280;20450;49.074;9.158;2023-06-22T11:06:06;99423.59;;;31.56;44.49
34177;BME280;20450;49.074;9.158;2023-06-22T11:08:33;99425.34;;;31.33;43.32
34177;BME280;20450;49.074;9.158;2023-06-22T11:11:00;99424.31;;;31.25;45.01
34177;BME280;20450;49.074;9.158;2023-06-22T11:13:28;99413.88;;;30.95;45.13
34177;BME280;20450;49.074;9.158;2023-06-22T11:16:11;99419.13;;;30.72;44.61
34177;BME280;20450;49.074;9.158;2023-06-22T11:18:38;99413.72;;;30.64;44.50
34177;BME280;20450;49.074;9.158;2023-06-22T11:21:07;99409.47;;;30.82;44.20
34177;BME280;20450;49.074;9.158;2023-06-22T11:23:34;99409.69;;;31.16;45.56
34177;BME280;20450;49.074;9.158;2023-06-22T11:26:02;99408.00;;;31.39;43.28
34177;BME280;20450;49.074;9.158;2023-06-22T11:28:31;99416.28;;;31.51;43.01
34177;BME280;20450;49.074;9.158;2023-06-22T11:34:17;99395.88;;;32.09;42.53
34177;BME280;20450;49.074;9.158;2023-06-22T11:36:44;99401.31;;;32.21;42.77
34177;BME280;20450;49.074;9.158;2023-06-22T11:39:25;99401.81;;;32.58;42.07
34177;BME280;20450;49.074;9.158;2023-06-22T11:42:08;99408.63;;;32.42;41.93
34177;BME280;20450;49.074;9.158;2023-06-22T11:44:37;99400.47;;;31.71;43.14
34177;BME280;20450;49.074;9.158;2023-06-22T11:47:04;99401.03;;;31.49;43.73
34177;BME280;20450;49.074;9.158;2023-06-22T11:49:32;99395.59;;;31.68;43.66
34177;BME280;20450;49.074;9.158;2023-06-22T11:52:04;99390.72;;;31.22;45.08
34177;BME280;20450;49.074;9.158;2023-06-22T11:54:31;99392.66;;;31.33;43.85
34177;BME280;20450;49.074;9.158;2023-06-22T12:00:46;99382.34;;;31.96;45.21
34177;BME280;20450;49.074;9.158;2023-06-22T12:03:18;99375.56;;;32.12;44.34
34177;BME280;20450;49.074;9.158;2023-06-22T12:05:47;99379.88;;;32.26;43.96
34177;BME280;20450;49.074;9.158;2023-06-22T12:08:17;99396.19;;;32.39;43.96
34177;BME280;20450;49.074;9.158;2023-06-22T12:10:45;99385.16;;;32.46;43.19
34177;BME280;20450;49.074;9.158;2023-06-22T12:13:41;99390.31;;;32.44;42.97
34177;BME280;20450;49.074;9.158;2023-06-22T12:16:10;99388.69;;;32.43;42.83
34177;BME280;20450;49.074;9.158;2023-06-22T12:18:37;99388.31;;;32.45;43.33
34177;BME280;20450;49.074;9.158;2023-06-22T12:21:05;99393.25;;;32.01;44.80
34177;BME280;20450;49.074;9.158;2023-06-22T12:23:32;99399.00;;;31.61;43.54
34177;BME280;20450;49.074;9.158;2023-06-22T12:26:13;99402.28;;;31.36;44.95
34177;BME280;20450;49.074;9.158;2023-06-22T12:28:40;99416.38;;;31.55;46.31
34177;BME280;20450;49.074;9.158;2023-06-22T12:31:07;99415.09;;;31.09;47.05
34177;BME280;20450;49.074;9.158;2023-06-22T12:33:50;99425.22;;;31.29;47.24
34177;BME280;20450;49.074;9.158;2023-06-22T12:36:18;99425.81;;;31.35;47.51
34177;BME280;20450;49.074;9.158;2023-06-22T12:38:45;99420.66;;;31.37;47.34
34177;BME280;20450;49.074;9.158;2023-06-22T12:41:14;99411.50;;;31.52;47.29
34177;BME280;20450;49.074;9.158;2023-06-22T12:44:07;99411.16;;;31.69;47.96
34177;BME280;20450;49.074;9.158;2023-06-22T12:46:34;99405.50;;;31.81;47.55
34177;BME280;20450;49.074;9.158;2023-06-22T12:49:03;99409.22;;;31.85;47.23
34177;BME280;20450;49.074;9.158;2023-06-22T12:55:18;99424.13;;;31.77;45.62
34177;BME280;20450;49.074;9.158;2023-06-22T12:57:46;99399.91;;;31.81;46.44
34177;BME280;20450;49.074;9.158;2023-06-22T13:00:14;99399.53;;;31.67;46.40
34177;BME280;20450;49.074;9.158;2023-06-22T13:02:41;99398.19;;;31.61;47.32
34177;BME280;20450;49.074;9.158;2023-06-22T13:05:11;99403.03;;;31.64;47.68
34177;BME280;20450;49.074;9.158;2023-06-22T13:07:38;99396.38;;;31.68;47.14
34177;BME280;20450;49.074;9.158;2023-06-22T13:10:30;99393.16;;;31.82;46.64
34177;BME280;20450;49.074;9.158;2023-06-22T13:12:58;99398.63;;;31.78;45.50
34177;BME280;20450;49.074;9.158;2023-06-22T13:15:26;99393.84;;;31.48;46.34
34177;BME280;20450;49.074;9.158;2023-06-22T13:17:55;99390.63;;;31.18;45.96
34177;BME280;20450;49.074;9.158;2023-06-22T13:20:48;99388.09;;;31.41;45.68
34177;BME280;20450;49.074;9.158;2023-06-22T13:23:15;99398.03;;;31.26;46.36
34177;BME280;20450;49.074;9.158;2023-06-22T13:25:43;99392.91;;;31.01;46.43
34177;BME280;20450;49.074;9.158;2023-06-22T13:28:10;99390.53;;;30.87;48.13
34177;BME280;20450;49.074;9.158;2023-06-22T13:30:53;99395.84;;;30.40;49.96
34177;BME280;20450;49.074;9.158;2023-06-22T13:37:23;99397.78;;;30.52;48.64
34177;BME280;20450;49.074;9.158;2023-06-22T13:39:50;99385.25;;;30.46;48.95
34177;BME280;20450;49.074;9.158;2023-06-22T13:42:17;99383.63;;;30.57;49.45
34177;BME280;20450;49.074;9.158;2023-06-22T13:45:03;99367.44;;;30.63;50.30
34177;BME280;20450;49.074;9.158;2023-06-22T13:47:56;99343.63;;;30.77;49.61
34177;BME280;20450;49.074;9.158;2023-06-22T13:50:42;99330.31;;;30.86;49.05
34177;BME280;20450;49.074;9.158;2023-06-22T13:53:12;99323.78;;;30.94;50.60
34177;BME280;20450;49.074;9.158;2023-06-22T13:55:40;99309.16;;;30.85;49.97
34177;BME280;20450;49.074;9.158;2023-06-22T13:58:07;99310.03;;;31.17;49.39